Time;durP1;ratioP1;P1;durP2;ratioP2;P2;SDS_P1;SDS_P2;PMS_P1;PMS_P2;Temp;Humidity;BMP_temperature;BMP_pressure;BME280_temperature;BME280_humidity;BME280_pressure;Samples;Min_cycle;Max_cycle;Signal;HPM_P1;HPM_P2
2022/01/09 00:00:36;;;;;;;2.65;1.48;;;;;;;3.12;100.00;98518.59;5183979;28;20060;-79
2022/01/09 00:03:07;;;;;;;3.22;1.30;;;;;;;3.22;100.00;98507.00;5170079;28;20080;-79
2022/01/09 00:05:38;;;;;;;4.72;1.27;;;;;;;3.28;100.00;98512.78;5170272;28;20033;-79
2022/01/09 00:08:08;;;;;;;2.28;1.50;;;;;;;3.20;100.00;98503.66;5171909;28;20093;-79
2022/01/09 00:10:45;;;;;;;4.53;1.70;;;;;;;3.15;100.00;98500.41;5169770;28;20173;-79
2022/01/09 00:13:16;;;;;;;2.60;1.30;;;;;;;3.09;100.00;98496.34;5167349;28;20022;-79
2022/01/09 00:15:46;;;;;;;4.13;1.50;;;;;;;3.08;100.00;98494.66;5173293;28;20033;-79
2022/01/09 00:18:17;;;;;;;4.95;1.60;;;;;;;3.15;100.00;98490.94;5180128;28;20030;-79
2022/01/09 00:20:47;;;;;;;3.72;1.52;;;;;;;3.15;100.00;98490.06;5188399;28;20083;-79
2022/01/09 00:23:18;;;;;;;2.38;1.20;;;;;;;3.15;100.00;98479.75;5170966;28;20117;-79
2022/01/09 00:25:48;;;;;;;2.65;1.42;;;;;;;3.15;100.00;98466.84;5171069;28;20030;-79
2022/01/09 00:28:18;;;;;;;3.83;1.48;;;;;;;3.14;100.00;98468.63;5205291;28;20032;-79
2022/01/09 00:30:49;;;;;;;3.90;1.88;;;;;;;3.18;100.00;98469.34;5167605;28;20495;-78
2022/01/09 00:33:22;;;;;;;2.78;1.40;;;;;;;3.16;100.00;98466.81;5170626;28;20039;-78
2022/01/09 00:35:52;;;;;;;2.55;1.40;;;;;;;3.21;100.00;98449.41;5173074;28;20045;-79
2022/01/09 00:38:23;;;;;;;2.92;1.30;;;;;;;3.23;99.97;98457.09;5172511;28;20022;-79
2022/01/09 00:40:53;;;;;;;3.50;1.15;;;;;;;3.25;99.88;98456.13;5180783;28;20051;-79
2022/01/09 00:43:23;;;;;;;3.55;1.40;;;;;;;3.29;99.00;98441.34;5172611;28;20121;-79
2022/01/09 00:45:53;;;;;;;3.20;1.27;;;;;;;3.23;99.83;98437.25;5172571;28;20091;-79
2022/01/09 00:48:24;;;;;;;2.33;1.30;;;;;;;3.22;99.38;98450.25;5180281;28;20113;-79
2022/01/09 00:50:54;;;;;;;2.95;1.17;;;;;;;3.21;100.00;98433.09;5188665;28;20026;-79
2022/01/09 00:53:25;;;;;;;4.28;1.60;;;;;;;3.21;99.25;98433.09;5172713;28;20109;-79
2022/01/09 00:55:55;;;;;;;4.28;1.20;;;;;;;3.22;99.24;98425.25;5176881;28;20028;-79
2022/01/09 00:58:25;;;;;;;3.72;1.40;;;;;;;3.26;98.48;98423.41;5188220;28;20103;-80
2022/01/09 01:00:55;;;;;;;1.88;1.20;;;;;;;3.26;98.88;98410.50;5179141;28;20033;-78
2022/01/09 01:03:26;;;;;;;4.00;1.23;;;;;;;3.27;99.64;98407.03;5171944;28;20041;-79
2022/01/09 01:05:56;;;;;;;2.92;1.10;;;;;;;3.22;99.67;98398.63;5154600;28;20030;-79
2022/01/09 01:08:26;;;;;;;5.07;1.30;;;;;;;3.28;99.14;98401.81;5192341;28;20102;-80
2022/01/09 01:10:56;;;;;;;3.90;1.52;;;;;;;3.24;99.46;98404.56;5161085;28;20045;-79
2022/01/09 01:13:27;;;;;;;3.35;1.17;;;;;;;3.26;98.94;98402.75;5170753;28;20039;-80
2022/01/09 01:15:58;;;;;;;4.80;1.42;;;;;;;3.17;99.58;98385.09;5172089;28;20030;-79
2022/01/09 01:18:28;;;;;;;2.90;1.20;;;;;;;3.20;99.87;98395.28;5164433;28;20403;-79
2022/01/09 01:21:00;;;;;;;3.80;1.35;;;;;;;3.18;99.84;98384.19;5169684;28;20033;-79
2022/01/09 01:23:30;;;;;;;2.33;1.00;;;;;;;3.21;99.32;98382.31;5179950;28;20030;-79
2022/01/09 01:26:02;;;;;;;1.83;1.13;;;;;;;3.22;99.58;98389.13;5179267;28;20026;-79
2022/01/09 01:28:32;;;;;;;2.50;1.13;;;;;;;3.21;99.61;98394.38;5164954;28;20092;-79
2022/01/09 01:33:38;;;;;;;2.72;1.27;;;;;;;3.19;99.19;98388.44;5174372;28;20414;-80
2022/01/09 01:36:08;;;;;;;2.60;1.25;;;;;;;3.20;100.00;98374.66;5164839;28;20030;-79
2022/01/09 01:38:39;;;;;;;4.00;1.27;;;;;;;3.22;99.02;98365.91;5175812;28;20026;-79
2022/01/09 01:41:09;;;;;;;3.13;1.10;;;;;;;3.24;99.50;98355.53;5170112;28;20080;-82
2022/01/09 01:43:39;;;;;;;1.88;0.95;;;;;;;3.22;99.59;98362.53;5261526;28;20420;-81
2022/01/09 01:46:10;;;;;;;3.95;1.48;;;;;;;3.22;99.64;98367.69;5261654;28;20032;-81
2022/01/09 01:48:40;;;;;;;2.60;1.15;;;;;;;3.21;100.00;98366.00;5258474;28;20028;-79
2022/01/09 01:51:10;;;;;;;3.85;1.15;;;;;;;3.17;100.00;98364.47;5260778;28;20023;-80
2022/01/09 01:53:41;;;;;;;2.08;1.20;;;;;;;3.17;100.00;98354.13;5262002;28;20641;-80
2022/01/09 01:56:18;;;;;;;3.70;1.13;;;;;;;3.17;100.00;98348.97;5261920;28;20516;-78
2022/01/09 01:58:50;;;;;;;4.18;1.30;;;;;;;3.11;100.00;98346.63;5262365;28;20032;-80
2022/01/09 02:01:20;;;;;;;2.72;1.13;;;;;;;3.12;100.00;98336.25;5261741;28;20052;-78
2022/01/09 02:03:51;;;;;;;2.90;1.10;;;;;;;3.14;100.00;98339.63;5261485;28;20060;-80
2022/01/09 02:06:21;;;;;;;2.53;1.17;;;;;;;3.14;100.00;98338.75;5260889;28;20064;-82
2022/01/09 02:08:52;;;;;;;7.50;1.35;;;;;;;3.10;100.00;98338.06;5259402;28;20020;-79
2022/01/09 02:11:22;;;;;;;3.63;1.10;;;;;;;3.13;100.00;98319.03;5261790;28;20016;-80
2022/01/09 02:13:53;;;;;;;3.33;1.10;;;;;;;3.21;100.00;98319.56;5265007;28;20600;-79
2022/01/09 02:16:23;;;;;;;1.55;0.95;;;;;;;3.30;100.00;98319.16;5265516;28;20047;-79
2022/01/09 02:18:53;;;;;;;4.85;1.20;;;;;;;3.37;100.00;98318.81;5257747;28;20032;-79
2022/01/09 02:21:26;;;;;;;2.25;1.08;;;;;;;3.40;100.00;98304.97;5264404;28;20451;-80
2022/01/09 02:23:56;;;;;;;2.30;1.10;;;;;;;3.36;100.00;98309.41;5265339;28;20103;-79
2022/01/09 02:26:26;;;;;;;2.25;0.90;;;;;;;3.45;100.00;98303.00;5265352;28;20429;-80
2022/01/09 02:28:57;;;;;;;4.53;0.82;;;;;;;3.47;100.00;98302.06;5265051;28;20040;-81
2022/01/09 02:31:27;;;;;;;1.58;0.95;;;;;;;3.48;100.00;98300.28;5243822;28;20035;-82
2022/01/09 02:33:57;;;;;;;4.50;0.80;;;;;;;3.50;100.00;98298.50;5242694;28;20509;-79
2022/01/09 02:36:28;;;;;;;2.22;1.00;;;;;;;3.52;100.00;98300.09;5242660;28;20090;-78
2022/01/09 02:38:58;;;;;;;3.03;0.80;;;;;;;3.59;99.98;98297.19;5211106;28;20052;-78
2022/01/09 02:41:28;;;;;;;2.08;1.10;;;;;;;3.59;100.00;98299.75;5243584;28;20103;-79
2022/01/09 02:44:06;;;;;;;2.42;0.90;;;;;;;3.68;100.00;98296.78;5243382;28;20440;-79
2022/01/09 02:49:08;;;;;;;2.72;0.90;;;;;;;3.73;99.31;98289.66;5236456;28;20090;-78
2022/01/09 02:51:44;;;;;;;4.20;0.80;;;;;;;3.73;99.49;98289.66;5234000;28;20028;-78
2022/01/09 02:57:04;;;;;;;1.52;0.80;;;;;;;3.64;100.00;98277.16;5222309;28;20056;-78
2022/01/09 02:59:34;;;;;;;1.77;0.80;;;;;;;3.59;99.97;98271.38;5224819;28;20020;-78
2022/01/09 03:02:05;;;;;;;2.65;0.80;;;;;;;3.59;100.00;98275.69;5226710;28;20025;-78
2022/01/09 03:04:35;;;;;;;2.03;0.90;;;;;;;3.57;100.00;98277.47;5223679;28;20050;-78
2022/01/09 03:07:05;;;;;;;2.22;0.80;;;;;;;3.50;100.00;98275.28;5230877;28;20141;-78
2022/01/09 03:09:36;;;;;;;2.17;1.00;;;;;;;3.45;100.00;98267.72;5238995;28;20078;-78
2022/01/09 03:12:10;;;;;;;2.40;1.02;;;;;;;3.40;100.00;98268.81;5243105;28;20608;-78
2022/01/09 03:14:40;;;;;;;1.92;0.90;;;;;;;3.36;100.00;98267.28;5242383;28;20043;-78
2022/01/09 03:17:10;;;;;;;0.90;0.70;;;;;;;3.34;100.00;98267.34;5242326;28;20644;-78
2022/01/09 03:19:41;;;;;;;1.80;0.77;;;;;;;3.30;100.00;98270.13;5239823;28;20071;-78
2022/01/09 03:22:11;;;;;;;1.83;0.80;;;;;;;3.19;100.00;98249.94;5242484;28;20021;-78
2022/01/09 03:24:42;;;;;;;1.98;0.90;;;;;;;3.21;100.00;98262.78;5241968;28;20428;-78
2022/01/09 03:27:13;;;;;;;1.77;0.80;;;;;;;3.19;100.00;98254.28;5242611;28;20020;-78
2022/01/09 03:29:44;;;;;;;2.13;0.90;;;;;;;3.19;100.00;98254.28;5242794;28;20027;-78
2022/01/09 03:32:14;;;;;;;1.75;1.00;;;;;;;3.20;100.00;98243.06;5242310;28;20020;-78
2022/01/09 03:34:45;;;;;;;2.60;0.93;;;;;;;3.22;100.00;98249.00;5242652;28;20506;-78
2022/01/09 03:37:15;;;;;;;1.85;0.90;;;;;;;3.16;100.00;98238.94;5241685;28;20032;-78
2022/01/09 03:39:45;;;;;;;2.83;0.90;;;;;;;3.24;100.00;98240.28;5240907;28;20163;-79
2022/01/09 03:42:16;;;;;;;1.75;1.15;;;;;;;3.16;100.00;98239.75;5224976;28;20117;-78
2022/01/09 03:44:46;;;;;;;2.20;1.10;;;;;;;3.17;100.00;98238.03;5242436;28;20043;-78
2022/01/09 03:47:16;;;;;;;1.80;0.90;;;;;;;3.24;100.00;98239.44;5241316;28;20443;-78
2022/01/09 03:49:47;;;;;;;1.80;0.90;;;;;;;3.20;100.00;98236.13;5226001;28;20033;-78
2022/01/09 03:52:17;;;;;;;1.80;0.82;;;;;;;3.19;100.00;98233.66;5233581;28;20104;-78
2022/01/09 03:54:48;;;;;;;2.35;0.90;;;;;;;3.22;100.00;98225.75;5240124;28;20674;-78
2022/01/09 03:57:18;;;;;;;1.77;1.00;;;;;;;3.27;100.00;98236.72;5224192;28;20028;-78
2022/01/09 03:59:48;;;;;;;1.90;1.00;;;;;;;3.30;100.00;98241.72;5242471;28;20040;-78
2022/01/09 04:02:19;;;;;;;1.60;1.00;;;;;;;3.21;100.00;98232.66;5241647;28;20017;-78
2022/01/09 04:04:49;;;;;;;1.83;0.80;;;;;;;3.24;100.00;98232.53;5241525;28;20056;-78
2022/01/09 04:07:19;;;;;;;2.40;1.00;;;;;;;3.20;100.00;98235.31;5241050;28;20035;-78
2022/01/09 04:09:50;;;;;;;1.58;0.90;;;;;;;3.16;100.00;98237.19;5240559;28;20024;-78
2022/01/09 04:12:31;;;;;;;1.50;0.90;;;;;;;3.11;100.00;98240.88;5235156;28;20025;-78
2022/01/09 04:15:06;;;;;;;1.90;1.05;;;;;;;3.15;100.00;98242.41;5225727;28;20037;-78
2022/01/09 04:17:50;;;;;;;2.95;0.90;;;;;;;3.16;100.00;98231.22;5233018;28;20070;-78
2022/01/09 04:20:30;;;;;;;2.15;1.10;;;;;;;3.17;100.00;98236.28;5235770;28;20028;-78
2022/01/09 04:23:01;;;;;;;2.28;0.90;;;;;;;3.13;100.00;98236.47;5233050;28;20075;-78
2022/01/09 04:25:31;;;;;;;2.50;1.10;;;;;;;3.11;100.00;98246.03;5228510;28;20083;-78
2022/01/09 04:28:01;;;;;;;2.47;1.10;;;;;;;3.07;100.00;98249.66;5216709;28;20156;-78
2022/01/09 04:30:32;;;;;;;2.78;1.10;;;;;;;3.11;100.00;98246.88;5208269;28;20038;-78
2022/01/09 04:33:02;;;;;;;2.70;1.20;;;;;;;3.08;100.00;98244.44;5231823;28;20036;-78
2022/01/09 04:35:33;;;;;;;1.10;0.80;;;;;;;3.09;100.00;98248.69;5240828;28;20028;-78
2022/01/09 04:38:04;;;;;;;2.58;1.00;;;;;;;3.10;100.00;98242.63;5244242;28;20029;-78
2022/01/09 04:40:35;;;;;;;1.70;0.90;;;;;;;3.16;100.00;98249.25;5250758;28;20047;-78
2022/01/09 04:43:08;;;;;;;2.15;1.10;;;;;;;3.15;100.00;98248.41;5251007;28;20051;-78
2022/01/09 04:45:38;;;;;;;1.80;1.20;;;;;;;3.20;100.00;98243.06;5262888;28;20448;-78
2022/01/09 04:48:11;;;;;;;1.95;0.90;;;;;;;3.20;100.00;98249.03;5260505;28;20028;-78
2022/01/09 04:50:44;;;;;;;1.60;0.80;;;;;;;3.23;100.00;98251.47;5242707;28;20028;-78
2022/01/09 04:53:14;;;;;;;3.58;1.15;;;;;;;3.24;100.00;98248.03;5262614;28;20035;-78
2022/01/09 04:55:47;;;;;;;1.92;0.90;;;;;;;3.26;100.00;98255.69;5262809;28;20020;-78
2022/01/09 04:58:17;;;;;;;2.42;1.00;;;;;;;3.22;100.00;98254.16;5262753;28;20653;-78
2022/01/09 05:00:48;;;;;;;1.50;0.98;;;;;;;3.24;100.00;98257.50;5262326;28;20099;-77
2022/01/09 05:03:19;;;;;;;1.73;0.95;;;;;;;3.23;100.00;98269.53;5262038;28;20028;-77
2022/01/09 05:05:50;;;;;;;2.58;0.88;;;;;;;3.27;100.00;98267.69;5262783;28;20035;-78
2022/01/09 05:08:20;;;;;;;2.00;1.10;;;;;;;3.24;100.00;98272.97;5260791;28;20024;-78
2022/01/09 05:10:50;;;;;;;1.20;0.90;;;;;;;3.23;100.00;98266.16;5261568;28;20052;-78
2022/01/09 05:13:21;;;;;;;1.55;1.00;;;;;;;3.20;100.00;98276.59;5262447;28;20035;-78
2022/01/09 05:15:51;;;;;;;0.93;0.70;;;;;;;3.15;100.00;98273.34;5262685;28;20034;-78
2022/01/09 05:18:21;;;;;;;1.73;0.85;;;;;;;3.20;100.00;98277.41;5259966;28;20507;-78
2022/01/09 05:20:52;;;;;;;3.53;1.10;;;;;;;3.13;100.00;98275.16;5242673;28;20112;-76
2022/01/09 05:23:22;;;;;;;1.55;0.95;;;;;;;3.10;100.00;98273.56;5262332;28;20043;-79
2022/01/09 05:25:52;;;;;;;2.58;0.93;;;;;;;3.12;100.00;98276.06;5262486;28;20093;-79
2022/01/09 05:28:22;;;;;;;2.75;1.10;;;;;;;3.08;100.00;98267.66;5262672;28;20552;-79
2022/01/09 05:30:53;;;;;;;1.90;1.00;;;;;;;3.08;100.00;98271.97;5262277;28;20496;-78
2022/01/09 05:33:23;;;;;;;2.78;1.00;;;;;;;3.04;100.00;98273.00;5243668;28;20040;-78
2022/01/09 05:35:53;;;;;;;2.85;1.23;;;;;;;2.98;100.00;98281.81;5241269;28;20035;-79
2022/01/09 05:38:23;;;;;;;1.55;0.80;;;;;;;2.95;100.00;98273.38;5239428;28;20050;-78
2022/01/09 05:40:54;;;;;;;2.00;1.10;;;;;;;2.91;100.00;98287.31;5241028;28;20020;-78
2022/01/09 05:43:25;;;;;;;2.47;1.17;;;;;;;2.91;100.00;98282.16;5241138;28;20028;-80
2022/01/09 05:45:55;;;;;;;2.13;1.25;;;;;;;2.85;100.00;98285.81;5241353;28;20102;-79
2022/01/09 05:48:25;;;;;;;1.50;1.00;;;;;;;2.86;100.00;98291.81;5223688;28;20028;-78
2022/01/09 05:50:55;;;;;;;2.05;1.15;;;;;;;2.88;100.00;98295.16;5235282;28;20676;-82
2022/01/09 05:53:26;;;;;;;2.58;1.17;;;;;;;2.87;100.00;98291.75;5245188;28;20112;-81
2022/01/09 05:55:56;;;;;;;3.80;1.20;;;;;;;2.85;100.00;98300.47;5244981;28;20051;-78
2022/01/09 05:58:26;;;;;;;1.88;1.20;;;;;;;2.87;100.00;98301.22;5245180;28;20021;-78
2022/01/09 06:00:56;;;;;;;2.50;1.13;;;;;;;2.87;100.00;98309.78;5244313;28;20017;-78
2022/01/09 06:03:27;;;;;;;2.85;1.30;;;;;;;2.86;100.00;98302.13;5244487;28;20024;-78
2022/01/09 06:05:57;;;;;;;2.92;1.15;;;;;;;2.81;100.00;98304.91;5244692;28;20492;-79
2022/01/09 06:08:28;;;;;;;2.88;1.25;;;;;;;2.84;100.00;98309.09;5242284;28;20110;-79
2022/01/09 06:10:58;;;;;;;2.88;1.10;;;;;;;2.78;100.00;98309.34;5244112;28;20021;-79
2022/01/09 06:13:28;;;;;;;1.85;1.23;;;;;;;2.80;100.00;98308.38;5243956;28;20116;-79
2022/01/09 06:15:58;;;;;;;2.90;1.27;;;;;;;2.82;100.00;98313.50;5244649;28;20032;-79
2022/01/09 06:18:30;;;;;;;3.03;1.23;;;;;;;2.87;100.00;98316.72;5241347;28;20473;-80
2022/01/09 06:21:00;;;;;;;3.65;1.33;;;;;;;2.74;100.00;98306.06;5243417;28;20105;-78
2022/01/09 06:23:30;;;;;;;2.25;1.40;;;;;;;2.69;100.00;98304.56;5244070;28;20067;-78
2022/01/09 06:26:01;;;;;;;3.30;1.27;;;;;;;2.70;100.00;98306.25;5243892;28;20494;-79
2022/01/09 06:28:31;;;;;;;3.67;1.42;;;;;;;2.72;100.00;98312.16;5218063;28;20118;-78
2022/01/09 06:31:01;;;;;;;2.17;1.20;;;;;;;2.78;100.00;98317.06;5243784;28;20032;-79
2022/01/09 06:33:31;;;;;;;2.47;1.20;;;;;;;2.70;100.00;98316.56;5244110;28;20122;-79
2022/01/09 06:36:02;;;;;;;1.95;1.15;;;;;;;2.72;100.00;98317.31;5244095;28;20040;-79
2022/01/09 06:38:32;;;;;;;2.33;1.50;;;;;;;2.70;100.00;98321.72;5241479;28;20024;-79
2022/01/09 06:41:03;;;;;;;2.78;1.65;;;;;;;2.63;100.00;98323.69;5243922;28;20096;-79
2022/01/09 06:43:33;;;;;;;2.53;1.50;;;;;;;2.63;100.00;98328.00;5243932;28;20056;-79
2022/01/09 06:46:04;;;;;;;2.60;1.58;;;;;;;2.70;100.00;98325.09;5244524;28;20111;-79
2022/01/09 06:48:34;;;;;;;2.70;1.65;;;;;;;2.73;100.00;98331.91;5240592;28;20036;-78
2022/01/09 06:51:04;;;;;;;2.13;1.42;;;;;;;2.76;100.00;98340.34;5242738;28;20026;-79
2022/01/09 06:53:34;;;;;;;3.05;1.77;;;;;;;2.62;100.00;98339.19;5243901;28;20033;-79
2022/01/09 06:56:05;;;;;;;3.10;1.55;;;;;;;2.68;100.00;98347.53;5244098;28;20028;-79
2022/01/09 06:58:38;;;;;;;2.22;1.48;;;;;;;2.69;100.00;98346.63;5242473;28;20029;-80
2022/01/09 07:01:09;;;;;;;3.50;1.85;;;;;;;2.76;100.00;98358.41;5243178;28;20610;-79
2022/01/09 07:03:39;;;;;;;2.97;1.83;;;;;;;2.56;100.00;98360.94;5243090;28;20025;-79
2022/01/09 07:06:10;;;;;;;3.65;1.90;;;;;;;2.60;100.00;98356.47;5242974;28;20025;-79
2022/01/09 07:08:40;;;;;;;3.13;1.77;;;;;;;2.68;100.00;98355.28;5222557;28;20025;-79
2022/01/09 07:11:11;;;;;;;3.63;1.70;;;;;;;2.66;100.00;98366.56;5242756;28;20016;-80
2022/01/09 07:13:41;;;;;;;3.70;2.10;;;;;;;2.65;100.00;98365.72;5243122;28;20485;-79
2022/01/09 07:16:11;;;;;;;3.55;1.92;;;;;;;2.67;100.00;98368.25;5242903;28;20024;-79
2022/01/09 07:18:42;;;;;;;5.00;1.73;;;;;;;2.69;100.00;98361.28;5239575;28;20036;-79
2022/01/09 07:21:12;;;;;;;3.28;1.70;;;;;;;2.86;100.00;98371.75;5242010;28;20021;-79
2022/01/09 07:23:42;;;;;;;3.30;1.90;;;;;;;2.72;100.00;98386.94;5242584;28;20032;-79
2022/01/09 07:26:13;;;;;;;3.28;1.98;;;;;;;2.78;100.00;98378.94;5224772;28;20035;-78
2022/01/09 07:28:43;;;;;;;4.75;2.10;;;;;;;2.70;100.00;98384.41;5242616;28;20040;-79
2022/01/09 07:31:13;;;;;;;3.40;1.90;;;;;;;2.50;100.00;98388.69;5242882;28;20017;-79
2022/01/09 07:33:43;;;;;;;3.90;2.08;;;;;;;2.55;100.00;98389.34;5243926;28;20486;-82
2022/01/09 07:36:16;;;;;;;5.20;2.65;;;;;;;2.54;100.00;98392.81;5243024;28;20064;-81
2022/01/09 07:38:46;;;;;;;3.67;2.05;;;;;;;2.55;100.00;98397.91;5238289;28;20032;-81
2022/01/09 07:41:17;;;;;;;6.07;2.65;;;;;;;2.56;100.00;98406.47;5242592;28;20027;-80
2022/01/09 07:43:47;;;;;;;3.70;2.30;;;;;;;2.55;100.00;98415.09;5242509;28;20044;-78
2022/01/09 07:46:17;;;;;;;3.85;2.40;;;;;;;2.71;100.00;98416.19;5242765;28;20498;-80
2022/01/09 07:48:48;;;;;;;4.63;2.70;;;;;;;2.66;100.00;98412.97;5239054;28;20025;-80
2022/01/09 07:51:18;;;;;;;4.13;2.38;;;;;;;2.63;100.00;98415.63;5240767;28;20020;-80
2022/01/09 07:53:48;;;;;;;5.47;2.85;;;;;;;2.62;100.00;98421.69;5236745;28;20032;-79
2022/01/09 07:56:19;;;;;;;3.80;2.58;;;;;;;2.68;100.00;98424.06;5242827;28;20024;-79
2022/01/09 07:58:49;;;;;;;4.90;2.60;;;;;;;2.68;100.00;98430.03;5241721;28;20384;-82
2022/01/09 08:01:20;;;;;;;4.78;2.83;;;;;;;2.70;100.00;98435.97;5242097;28;20375;-82
2022/01/09 08:03:50;;;;;;;5.32;3.08;;;;;;;2.67;100.00;98440.41;5241898;28;20032;-81
2022/01/09 08:06:20;;;;;;;4.55;3.03;;;;;;;2.65;100.00;98449.97;5241797;28;20021;-79
2022/01/09 08:08:50;;;;;;;4.63;2.85;;;;;;;2.74;100.00;98447.88;5239607;28;20059;-79
2022/01/09 08:11:22;;;;;;;5.35;3.10;;;;;;;2.77;100.00;98452.03;5241418;28;20397;-79
2022/01/09 08:13:53;;;;;;;5.25;2.90;;;;;;;2.90;100.00;98455.84;5224325;28;20040;-78
2022/01/09 08:16:23;;;;;;;7.18;3.00;;;;;;;2.85;100.00;98460.34;5241383;28;20074;-79
2022/01/09 08:18:53;;;;;;;6.15;2.90;;;;;;;2.85;100.00;98465.50;5238070;28;20545;-80
2022/01/09 08:21:24;;;;;;;6.05;2.85;;;;;;;2.72;100.00;98474.59;5241168;28;20020;-79
2022/01/09 08:23:54;;;;;;;5.45;3.00;;;;;;;2.86;100.00;98472.34;5241751;28;20021;-79
2022/01/09 08:26:25;;;;;;;4.57;3.00;;;;;;;2.84;100.00;98476.72;5240937;28;20029;-79
2022/01/09 08:28:55;;;;;;;5.22;2.88;;;;;;;2.82;100.00;98475.94;5241831;28;20036;-79
2022/01/09 08:31:25;;;;;;;4.95;3.20;;;;;;;2.89;100.00;98472.22;5241391;28;20028;-80
2022/01/09 08:33:55;;;;;;;4.72;3.10;;;;;;;2.85;100.00;98484.38;5241588;28;20075;-79
2022/01/09 08:36:26;;;;;;;6.38;3.38;;;;;;;2.82;100.00;98488.81;5241847;28;20024;-78
2022/01/09 08:38:56;;;;;;;6.45;3.10;;;;;;;2.84;100.00;98489.59;5238815;28;20024;-80
2022/01/09 08:41:26;;;;;;;6.20;3.28;;;;;;;2.88;100.00;98491.16;5223550;28;20539;-80
2022/01/09 08:43:56;;;;;;;6.50;3.28;;;;;;;2.87;100.00;98504.97;5241526;28;20133;-79
2022/01/09 08:46:28;;;;;;;5.55;3.10;;;;;;;2.91;100.00;98504.78;5241480;28;20532;-79
2022/01/09 08:48:58;;;;;;;6.25;3.60;;;;;;;2.88;100.00;98512.63;5238060;28;20037;-80
2022/01/09 08:51:29;;;;;;;7.90;3.45;;;;;;;3.01;100.00;98507.84;5239596;28;20401;-79
2022/01/09 08:53:59;;;;;;;5.75;3.55;;;;;;;2.92;100.00;98526.25;5228439;28;20033;-79
2022/01/09 08:56:32;;;;;;;5.93;3.30;;;;;;;3.02;100.00;98520.69;5241138;28;20036;-79
2022/01/09 08:59:02;;;;;;;4.65;3.15;;;;;;;2.98;100.00;98526.00;5233155;28;20159;-79
2022/01/09 09:01:32;;;;;;;4.32;2.70;;;;;;;3.07;100.00;98523.09;5241309;28;20493;-80
2022/01/09 09:04:03;;;;;;;4.85;1.90;;;;;;;3.26;100.00;98530.06;5240702;28;20513;-80
2022/01/09 09:06:33;;;;;;;3.50;1.90;;;;;;;3.28;100.00;98540.31;5240566;28;20386;-80
2022/01/09 09:09:03;;;;;;;3.55;1.83;;;;;;;3.30;100.00;98535.94;5239763;28;20024;-79
2022/01/09 09:11:35;;;;;;;3.88;1.60;;;;;;;3.28;100.00;98541.16;5240702;28;20027;-80
2022/01/09 09:14:05;;;;;;;2.40;1.40;;;;;;;3.35;100.00;98534.84;5240037;28;20125;-79
2022/01/09 09:16:36;;;;;;;3.80;1.50;;;;;;;3.30;100.00;98548.81;5232042;28;20115;-82
2022/01/09 09:19:06;;;;;;;4.18;1.80;;;;;;;3.44;100.00;98549.13;5228016;28;20023;-81
2022/01/09 09:21:36;;;;;;;3.78;1.48;;;;;;;3.59;100.00;98545.03;5232691;28;20032;-80
2022/01/09 09:24:07;;;;;;;4.38;1.65;;;;;;;3.68;100.00;98555.00;5242251;28;20037;-85
2022/01/09 09:26:37;;;;;;;2.25;1.30;;;;;;;3.60;100.00;98564.78;5242173;28;20126;-82
2022/01/09 09:29:07;;;;;;;2.67;1.60;;;;;;;3.61;100.00;98569.06;5236059;28;20035;-79
2022/01/09 09:31:37;;;;;;;1.85;1.10;;;;;;;3.72;100.00;98574.63;5238468;28;20082;-79
2022/01/09 09:34:08;;;;;;;1.45;1.05;;;;;;;3.57;100.00;98574.41;5230486;28;20070;-79
2022/01/09 09:36:38;;;;;;;2.40;1.17;;;;;;;3.50;100.00;98583.28;5241216;28;20416;-79
2022/01/09 09:39:09;;;;;;;2.15;1.30;;;;;;;3.50;100.00;98577.31;5242209;28;20016;-79
2022/01/09 09:41:41;;;;;;;1.88;1.02;;;;;;;3.56;100.00;98588.22;5227170;28;20466;-80
2022/01/09 09:44:12;;;;;;;1.80;1.20;;;;;;;3.48;100.00;98582.53;5244945;28;20048;-80
2022/01/09 09:46:48;;;;;;;1.42;1.05;;;;;;;3.44;100.00;98591.28;5245368;28;20024;-81
2022/01/09 09:49:20;;;;;;;1.98;1.00;;;;;;;3.51;100.00;98589.31;5245007;28;20021;-85
2022/01/09 09:51:50;;;;;;;2.90;1.23;;;;;;;3.48;100.00;98608.34;5246080;28;20023;-84
2022/01/09 09:54:21;;;;;;;2.58;1.92;;;;;;;3.50;100.00;98613.44;5227511;28;20519;-83
2022/01/09 09:56:52;;;;;;;1.60;1.30;;;;;;;3.54;100.00;98617.59;5243826;28;20033;-88
2022/01/09 09:59:24;;;;;;;2.78;1.50;;;;;;;3.50;100.00;98623.78;5221733;28;20025;-80
2022/01/09 10:01:55;;;;;;;1.55;1.15;;;;;;;3.53;100.00;98621.91;5245245;28;20009;-78
2022/01/09 10:04:25;;;;;;;2.17;1.00;;;;;;;3.56;100.00;98626.94;5239686;28;20092;-78
2022/01/09 10:06:56;;;;;;;1.35;0.80;;;;;;;3.30;100.00;98623.66;5226731;28;20028;-86
2022/01/09 10:09:26;;;;;;;1.35;0.77;;;;;;;3.40;100.00;98625.00;5243607;28;20031;-84
2022/01/09 10:12:04;;;;;;;1.88;1.00;;;;;;;3.50;100.00;98632.34;5246998;28;20133;-81
2022/01/09 10:14:34;;;;;;;0.90;0.70;;;;;;;3.51;100.00;98634.03;5240963;28;20475;-84
2022/01/09 10:17:14;;;;;;;1.10;0.80;;;;;;;3.35;100.00;98632.94;5238503;28;20031;-83
2022/01/09 10:19:45;;;;;;;2.78;1.20;;;;;;;3.32;100.00;98643.38;5240588;28;20031;-85
2022/01/09 10:22:32;;;;;;;1.40;1.05;;;;;;;3.32;100.00;98647.69;5238526;28;20036;-81
2022/01/09 10:25:25;;;;;;;1.95;1.20;;;;;;;3.36;100.00;98652.69;5221713;28;20024;-84
2022/01/09 10:27:58;;;;;;;1.40;1.00;;;;;;;3.26;100.00;98659.09;5239867;28;20044;-78
2022/01/09 10:30:31;;;;;;;1.20;0.80;;;;;;;3.16;100.00;98665.47;5241355;28;20024;-79
2022/01/09 10:33:06;;;;;;;1.98;0.80;;;;;;;3.06;100.00;98677.00;5240361;28;20055;-82
2022/01/09 10:35:38;;;;;;;1.35;0.90;;;;;;;3.16;100.00;98672.41;5241572;28;20021;-84
2022/01/09 10:38:22;;;;;;;1.27;1.10;;;;;;;3.08;100.00;98679.56;5234732;28;20603;-82
2022/01/09 10:40:58;;;;;;;2.35;1.10;;;;;;;3.06;100.00;98678.78;5242875;28;20086;-81
2022/01/09 10:43:39;;;;;;;2.78;1.50;;;;;;;2.96;100.00;98688.56;5243627;28;20092;-78
2022/01/09 10:46:10;;;;;;;2.47;1.30;;;;;;;2.92;100.00;98696.47;5237697;28;20051;-78
2022/01/09 10:48:44;;;;;;;3.33;1.30;;;;;;;3.07;100.00;98698.50;5238208;28;20112;-78
2022/01/09 10:51:14;;;;;;;2.95;1.60;;;;;;;2.97;100.00;98697.13;5243034;28;20028;-78
2022/01/09 10:53:45;;;;;;;2.33;1.25;;;;;;;3.00;100.00;98694.47;5238703;28;20394;-78
2022/01/09 10:56:20;;;;;;;1.52;0.90;;;;;;;3.06;100.00;98699.41;5238692;28;20079;-79
2022/01/09 10:58:53;;;;;;;2.55;1.25;;;;;;;3.10;100.00;98700.97;5222883;28;20149;-79
2022/01/09 11:01:25;;;;;;;2.50;1.20;;;;;;;2.94;100.00;98697.25;5240814;28;20037;-79
2022/01/09 11:03:58;;;;;;;2.88;1.45;;;;;;;3.22;100.00;98705.72;5243590;28;20037;-79
2022/01/09 11:06:31;;;;;;;2.88;1.40;;;;;;;3.15;100.00;98706.81;5239703;28;20273;-79
2022/01/09 11:09:05;;;;;;;2.28;1.40;;;;;;;3.04;100.00;98708.94;5236527;28;20027;-79
2022/01/09 11:14:13;;;;;;;1.77;0.98;;;;;;;3.01;100.00;98714.22;5242515;28;20033;-80
2022/01/09 11:16:51;;;;;;;3.63;1.08;;;;;;;3.10;100.00;98713.88;5237816;28;20032;-78
2022/01/09 11:19:24;;;;;;;2.20;1.15;;;;;;;3.13;100.00;98722.38;5236319;28;20038;-78
2022/01/09 11:21:59;;;;;;;2.15;1.20;;;;;;;3.18;100.00;98723.03;5241051;28;20429;-85
2022/01/09 11:24:48;;;;;;;4.13;1.63;;;;;;;3.13;100.00;98734.41;5242854;28;20032;-82
2022/01/09 11:27:27;;;;;;;2.67;1.20;;;;;;;3.28;100.00;98732.13;5218385;28;20032;-85
2022/01/09 11:30:09;;;;;;;3.35;1.20;;;;;;;3.34;100.00;98731.09;5221967;28;20398;-79
2022/01/09 11:32:58;;;;;;;1.70;1.10;;;;;;;3.39;100.00;98740.31;5249704;28;20020;-79
2022/01/09 11:35:35;;;;;;;2.42;1.05;;;;;;;3.53;100.00;98740.66;5263701;28;20032;-82
2022/01/09 11:38:38;;;;;;;1.70;1.20;;;;;;;3.53;100.00;98734.66;5261496;28;20024;-81
2022/01/09 11:41:23;;;;;;;3.33;1.58;;;;;;;3.56;100.00;98724.22;5237346;28;20397;-79
2022/01/09 11:43:59;;;;;;;3.45;1.50;;;;;;;3.50;100.00;98734.78;5259152;28;20114;-80
2022/01/09 11:46:51;;;;;;;3.80;1.67;;;;;;;3.57;100.00;98741.41;5257683;28;20027;-80
2022/01/09 11:49:22;;;;;;;6.07;1.83;;;;;;;3.45;100.00;98747.84;5257725;28;21129;-80
2022/01/09 11:51:56;;;;;;;3.08;1.70;;;;;;;3.45;100.00;98753.03;5258459;28;20016;-81
2022/01/09 11:54:27;;;;;;;3.80;1.60;;;;;;;3.53;100.00;98756.16;5259927;28;20231;-79
2022/01/09 11:57:06;;;;;;;4.90;1.60;;;;;;;3.52;100.00;98756.22;5258268;28;20277;-83
2022/01/09 11:59:40;;;;;;;3.50;1.85;;;;;;;3.59;100.00;98749.03;5239845;28;20524;-82
2022/01/09 12:02:16;;;;;;;4.18;1.67;;;;;;;3.64;100.00;98749.69;5263008;28;20095;-81
2022/01/09 12:04:46;;;;;;;3.53;1.58;;;;;;;3.57;100.00;98759.47;5248811;28;20489;-79